Challenge Trail de la forêt du Pays de Chimay

Le Trail Des 3 Vallées - Couvin (32.00 km)

samedi 08 février 2020

Vous pouvez trouver Le classement original sur : https://www.goaltiming.be
CHALLENGE TRAIL DE LA FORÊT DU PAYS DE CHIMAY
LE TRAIL DES 3 VALLÉES - COUVIN
DISTANCE : 31.95 km
samedi 08 février 2020
 
Place dos NOM Catégorie Pl/cat temps temps/km Vitesse
01:00:00              
1 3533 FLORIAN DESCAMPS SEH 1 2:14:59 04:14 14.20
2 3372 YVES PEIRSMAN SEH 2 2:22:54 04:28 13.41
3 3544 PETER FAZEKAS SEH 3 2:27:37 04:37 12.98
4 3575 STEPHANE MOUCHET V1 1 2:28:31 04:39 12.91
5 3601 MATTHIAS WALLAERT SEH 4 2:28:44 04:39 12.89
6 3559 LIONEL LACAILLE SEH 5 2:30:52 04:43 12.71
7 3388 FLORIAN MOYEN SEH 6 2:31:50 04:45 12.62
8 3376 WILLIAM DE LENA SEH 7 2:39:42 05:00 12.00
9 3556 EDDY JACQUES V2 1 2:41:14 05:03 11.89
10 3359 WOUTER HAMELINCK SEH 8 2:41:46 05:04 11.85
11 3571 STEPHANE MARCHAND V1 2 2:42:07 05:04 11.82
12 3578 ANTOINE POUCET SEH 9 2:42:59 05:06 11.76
13 3576 JORDY MOULIN SEH 10 2:43:02 05:06 11.76
14 3591 KOEN SYMONS V1 3 2:43:42 05:07 11.71
15 3536 BART DEWANDELEER SEH 11 2:44:02 05:08 11.69
16 3554 DENIS HUBEAUX V1 4 2:44:04 05:08 11.68
17 3600 ADRIEN VINCENT SEH 12 2:44:39 05:09 11.64
18 3347 FREDERIC AUDRAN V1 5 2:46:06 05:12 11.54
19 3351 JEAN MASSON SEH 13 2:46:09 05:12 11.54
20 3531 VINCENT DELESTREE V1 6 2:46:54 05:13 11.48
21 3582 IGNACE RANSQUIN SEH 14 2:47:36 05:15 11.44
22 3539 OLIVIER DULON V2 2 2:47:37 05:15 11.44
23 3534 FRANCOIS DESTREBECQ V1 7 2:47:52 05:15 11.42
24 3565 BAPTISTE LECOMPTE SEH 15 2:48:04 05:16 11.40
25 3514 THIBAULT BARBIER SEH 16 2:48:23 05:16 11.38
26 3573 FRANCOIS MASSON SEH 17 2:48:41 05:17 11.36
27 3384 ALEXANDRE PIERARD V1 8 2:49:23 05:18 11.32
28 3378 PIERRE GAULIER V2 3 2:50:38 05:20 11.23
29 3584 YVES RENARD V2 4 2:50:57 05:21 11.21
30 3593 EWALD TABARY SEH 18 2:51:59 05:23 11.15
31 3512 WILLIAM ANSIAUX V1 9 2:52:00 05:23 11.14
32 3394 HERVE FRANCOIS SEH 19 2:54:01 05:27 11.01
33 3396 MARTIN GOBERT SEH 20 2:54:01 05:27 11.01
34 3343 FREDERIC LE GALL V1 10 2:56:02 05:31 10.89
35 3393 GWENAEL WAINE SEH 21 2:56:36 05:32 10.85
36 3364 ROMUALD LUCAS V1 11 2:57:07 05:33 10.82
37 3535 ARNAUD DEVULDER XXX   2:57:39 05:34 10.79
38 3551 PATRICE HOCQUET V2 5 2:59:28 05:37 10.68
39 3369 LIONEL CULOT V1 12 3:00:40 05:39 10.61
40 3521 MATHIEU CAPOUET SEH 22 3:01:35 05:41 10.56
41 3381 FRÉDÉRIC JACQUES V1 13 3:02:40 05:43 10.49
42 3572 LIONNEL MARTIN V1 14 3:03:06 05:44 10.47
43 3360 OLIVIER DELAIT V2 6 3:03:23 05:44 10.45
44 3513 BRUNO AUBRY V2 7 3:04:21 05:46 10.40
45 3560 ERIC LAMBERT V2 8 3:04:52 05:47 10.37
46 3517 FABRICE BIASINO V1 15 3:05:02 05:48 10.36
47 3555 DANIEL JACQUES V2 9 3:05:49 05:49 10.32
48 3540 NICOLAS ERNEST SEH 23 3:07:21 05:52 10.23
49 3391 YANN CHICHEPORTICHE V1 16 3:08:25 05:54 10.17
50 3515 EDWIN BAUMAL V1 17 3:08:37 05:54 10.16
51 3538 EDITH DOYEN A2 1 3:09:11 05:55 10.13
52 3362 LAURENT BOURGUIGNON V1 18 3:09:24 05:56 10.12
53 3392 DOMINIQUE DE GHEUS V1 19 3:09:57 05:57 10.09
54 3390 PIERRE OTTERMANS V1 20 3:11:04 05:59 10.03
55 3365 BENJAMIN PAGE V1 21 3:11:53 06:00 9.99
56 3348 BENEDICTE HERBIET A1 1 3:12:03 06:01 9.98
57 3349 ANTHONY SAMAIN V2 10 3:12:03 06:01 9.98
58 3546 VINCENT GERARDIN SEH 24 3:12:54 06:02 9.94
59 3379 PATRICK GHESQUIERE V1 22 3:13:20 06:03 9.91
60 3598 LAURENT VELARD V2 11 3:13:30 06:03 9.91
61 3567 BASTIEN LEQUIEN SEH 25 3:14:46 06:06 9.84
62 3526 JASON CUISSET SEH 26 3:15:45 06:08 9.79
63 3524 NICOLAS CHAMPION V1 23 3:15:53 06:08 9.79
64 3370 LIONEL FABRE V1 24 3:17:44 06:11 9.69
65 3542 MICHAEL FABRE V1 25 3:17:45 06:11 9.69
66 3516 SAID BEN SEDDIK V2 12 3:18:33 06:13 9.65
67 3569 THOMAS LIBERSENS SEH 27 3:18:40 06:13 9.65
68 3385 ALDO MARSEN SEH 28 3:18:51 06:13 9.64
69 3548 ANNELEEN GOFFIN SED 1 3:19:01 06:14 9.63
70 3596 BART VANDEN BOSCH SEH 29 3:19:01 06:14 9.63
71 3577 THOMAS PETITJEAN V1 26 3:19:16 06:14 9.62
72 3562 MICHAEL LANNOO V1 27 3:19:25 06:15 9.61
73 3367 PIERRE BOUCHAT SEH 30 3:19:28 06:15 9.61
74 3557 EDDY JONCKHEERE V2 13 3:20:19 06:16 9.57
75 3599 BRUNO VILAIN V2 14 3:20:31 06:17 9.56
76 3580 CHRISTOPHE RABIN V2 15 3:20:34 06:17 9.56
77 3363 GERALD DE MONTE V1 28 3:20:39 06:17 9.55
78 3592 EDIT SZEPESSY A1 2 3:21:12 06:18 9.53
79 3528 FREDERIC DE WITTE V1 29 3:21:21 06:18 9.52
80 3386 CHRISTOPHE DETELLIER SEH 31 3:21:53 06:19 9.49
81 3530 BENJAMIN DELEBARRE SEH 32 3:22:10 06:20 9.48
82 3553 BENOIT HUBEAUX SEH 33 3:22:17 06:20 9.48
83 3341 ALAIN VERSTICHEL V2 16 3:22:24 06:20 9.47
84 3566 ANDY LENOIR V1 30 3:22:38 06:21 9.46
85 3371 JEAN-MICHEL BLERWISCH V1 31 3:22:53 06:21 9.45
86 3368 MARC BOUCHAT V3 1 3:23:10 06:22 9.43
87 3549 STEPHANE GUYETTE V1 32 3:23:52 06:23 9.40
88 3345 ERIC DOUETTE V3 2 3:23:55 06:23 9.40
89 3344 XAVIER BOUCHET V2 17 3:24:34 06:24 9.37
90 3570 ANDREI LIXANDRU V1 33 3:24:50 06:25 9.36
91 3389 DENIS MULLER V1 34 3:24:51 06:25 9.36
92 3597 DAVID VANHOUTE XXX   3:25:15 06:25 9.34
93 3564 GILDAS LEBRUN SEH 34 3:25:24 06:26 9.33
94 3585 ROMAIN ROLAND SEH 35 3:27:04 06:29 9.26
95 3382 NICOLAS MESGUEN V1 35 3:27:35 06:30 9.23
96 3590 KRIS STOKMANS SEH 36 3:27:36 06:30 9.23
97 3563 BRICE LEBERT SEH 37 3:27:42 06:30 9.23
98 3537 JONATHAN DEXTERS SEH 38 3:27:53 06:30 9.22
99 3350 LAURENT LECLERC V2 18 3:28:00 06:31 9.22
100 3594 CATHERINE TARIN A1 3 3:28:23 06:31 9.20
101 3358 FRANCOIS POLEUR SEH 39 3:28:36 06:32 9.19
102 3373 ROLAND DE HAAS V3 3 3:29:39 06:34 9.14
103 3511 BERTRAND AMANT SEH 40 3:31:38 06:37 9.06
104 3395 RAPHAEL FRANCOIS ESH 1 3:31:50 06:38 9.05
105 3380 CHARLES-EMMANUEL THIRION SEH 41 3:32:22 06:39 9.03
106 3579 JEOFFREY QUENON SEH 42 3:32:36 06:39 9.02
107 3354 PASCAL LETE V3 4 3:33:26 06:41 8.98
108 3374 KRISTOF DE NEEF V1 36 3:35:26 06:45 8.90
109 3595 OLIVIER VAN DER VRECKEN V2 19 3:36:16 06:46 8.86
110 3543 LAURENT FAYS V2 20 3:37:42 06:49 8.80
111 3383 STEPHANE-CESAR DAYE SEH 43 3:37:55 06:49 8.80
112 3375 OTERLUND TORBEN V3 5 3:38:40 06:51 8.77
113 3574 RAFAEL MORO LAVADO V2 21 3:39:57 06:53 8.71
114 3355 THIERRY HOUZE V1 37 3:42:08 06:57 8.63
115 3561 BERNARD LANDELOOS V1 38 3:45:28 07:03 8.50
116 3398 MEHDI ABOUDI V1 39 3:47:02 07:06 8.44
117 3518 SERGE BOULANGER V1 40 3:47:38 07:08 8.42
118 3589 REGINALD STAMPE V1 41 3:47:51 07:08 8.41
119 3583 EDDY RAVIAT V2 22 3:49:21 07:11 8.36
120 3346 PIERRE PLASMAN SEH 44 3:50:38 07:13 8.31
121 3527 DAVID DANGUIEN SEH 45 3:51:22 07:15 8.28
122 3558 BRUNO KESTEMONT V3 6 3:53:46 07:19 8.20
123 3545 JOAQUIN GARCIA V2 23 3:58:46 07:28 8.03
124 3586 THOMAS SCAILLET SEH 46 3:59:44 07:30 8.00
125 3520 JULIEN BRUNET SEH 47 3:59:45 07:30 7.99
126 3547 GERARD GILLIARD V3 7 4:02:16 07:35 7.91
127 3397 DAVID DUPONT SEH 48 4:02:16 07:35 7.91
128 3387 HENRY TIMSIT V3 8 4:16:32 08:02 7.47
129 3353 NICOLAS MATHOT V1 42 4:20:14 08:09 7.37
130 3541 SEBASTIEN ESPREUX V1 43 4:27:44 08:23 7.16
131 3519 ANDRE BOUSSEMAERE V3 9 4:51:00 09:07 6.59